createdAt,value
2019-03-23T00:00:29.251Z,14.40
2019-03-23T00:02:57.734Z,13.90
2019-03-23T00:05:25.987Z,15.05
2019-03-23T00:07:54.237Z,14.35
2019-03-23T00:10:22.518Z,14.38
2019-03-23T00:12:50.786Z,14.50
2019-03-23T00:15:22.229Z,14.73
2019-03-23T00:17:50.460Z,14.93
2019-03-23T00:20:18.738Z,14.07
2019-03-23T00:22:46.993Z,14.70
2019-03-23T00:25:15.254Z,14.40
2019-03-23T00:27:43.576Z,24.40
2019-03-23T00:30:13.479Z,16.80
2019-03-23T00:32:41.748Z,16.32
2019-03-23T00:35:10.021Z,14.05
2019-03-23T00:37:38.342Z,13.85
2019-03-23T00:40:10.046Z,14.23
2019-03-23T00:42:38.314Z,14.90
2019-03-23T00:45:08.015Z,14.05
2019-03-23T00:47:36.274Z,17.23
2019-03-23T00:50:05.667Z,18.55
2019-03-23T00:52:33.925Z,13.90
2019-03-23T00:55:02.211Z,13.95
2019-03-23T00:57:30.438Z,13.50
2019-03-23T00:59:58.687Z,14.53
2019-03-23T01:02:26.949Z,13.62
2019-03-23T01:04:55.182Z,13.00
2019-03-23T01:07:23.438Z,13.85
2019-03-23T01:09:51.690Z,12.70
2019-03-23T01:12:20.027Z,12.35
2019-03-23T01:14:48.397Z,12.55
2019-03-23T01:17:16.738Z,12.13
2019-03-23T01:19:45.159Z,13.43
2019-03-23T01:22:13.413Z,12.73
2019-03-23T01:24:41.696Z,12.25
2019-03-23T01:27:10.059Z,12.13
2019-03-23T01:29:38.357Z,12.33
2019-03-23T01:32:06.691Z,13.20
2019-03-23T01:34:34.956Z,12.23
2019-03-23T01:37:03.245Z,12.40
2019-03-23T01:39:31.545Z,12.60
2019-03-23T01:41:59.799Z,11.55
2019-03-23T01:44:28.075Z,12.23
2019-03-23T01:46:56.437Z,12.50
2019-03-23T01:49:24.704Z,12.75
2019-03-23T01:51:52.990Z,12.37
2019-03-23T01:54:21.282Z,12.93
2019-03-23T01:56:49.594Z,12.63
2019-03-23T01:59:17.832Z,12.00
2019-03-23T02:01:46.084Z,12.45
2019-03-23T02:04:14.424Z,12.33
2019-03-23T02:06:42.685Z,12.50
2019-03-23T02:09:10.966Z,12.07
2019-03-23T02:11:39.254Z,11.85
2019-03-23T02:14:07.528Z,11.97
2019-03-23T02:16:35.838Z,11.93
2019-03-23T02:19:04.112Z,12.03
2019-03-23T02:21:32.420Z,12.45
2019-03-23T02:24:00.654Z,12.80
2019-03-23T02:26:28.989Z,11.55
2019-03-23T02:28:57.304Z,12.03
2019-03-23T02:31:25.811Z,12.30
2019-03-23T02:33:54.105Z,12.23
2019-03-23T02:36:22.353Z,12.45
2019-03-23T02:38:50.601Z,11.85
2019-03-23T02:41:18.952Z,11.93
2019-03-23T02:43:47.242Z,11.63
2019-03-23T02:46:15.543Z,11.78
2019-03-23T02:48:43.800Z,12.05
2019-03-23T02:51:12.060Z,11.38
2019-03-23T02:53:40.320Z,10.48
2019-03-23T02:56:08.642Z,10.70
2019-03-23T02:58:37.005Z,10.72
2019-03-23T03:01:05.273Z,10.93
2019-03-23T03:03:33.731Z,11.55
2019-03-23T03:06:01.974Z,10.53
2019-03-23T03:08:30.255Z,11.60
2019-03-23T03:10:58.495Z,10.60
2019-03-23T03:13:26.778Z,11.00
2019-03-23T03:15:55.007Z,10.70
2019-03-23T03:18:23.282Z,10.50
2019-03-23T03:20:51.551Z,11.60
2019-03-23T03:23:19.850Z,10.23
2019-03-23T03:25:48.096Z,10.58
2019-03-23T03:28:16.394Z,11.20
2019-03-23T03:30:44.858Z,11.15
2019-03-23T03:33:13.169Z,11.10
2019-03-23T03:35:41.454Z,11.12
2019-03-23T03:38:09.726Z,12.03
2019-03-23T03:40:38.048Z,11.38
2019-03-23T03:43:06.311Z,11.38
2019-03-23T03:45:35.053Z,10.88
2019-03-23T03:48:03.341Z,12.13
2019-03-23T03:50:31.666Z,11.43
2019-03-23T03:52:59.941Z,10.72
2019-03-23T03:55:28.265Z,10.70
2019-03-23T03:57:56.517Z,12.23
2019-03-23T04:00:24.882Z,11.40
2019-03-23T04:02:53.201Z,11.15
2019-03-23T04:05:21.471Z,11.15
2019-03-23T04:07:49.781Z,11.40
2019-03-23T04:10:18.062Z,11.00
2019-03-23T04:12:46.309Z,10.95
2019-03-23T04:15:14.580Z,12.05
2019-03-23T04:17:42.841Z,12.43
2019-03-23T04:20:11.407Z,11.78
2019-03-23T04:22:39.642Z,11.45
2019-03-23T04:25:09.431Z,10.88
2019-03-23T04:27:37.679Z,10.28
2019-03-23T04:30:07.334Z,10.90
2019-03-23T04:32:35.616Z,11.03
2019-03-23T04:35:05.471Z,10.75
2019-03-23T04:37:33.733Z,10.95
2019-03-23T04:40:01.989Z,11.18
2019-03-23T04:42:30.278Z,11.53
2019-03-23T04:44:58.545Z,11.15
2019-03-23T04:47:26.836Z,11.08
2019-03-23T04:49:55.081Z,11.60
2019-03-23T04:52:23.420Z,11.60
2019-03-23T04:54:51.674Z,11.45
2019-03-23T04:57:19.916Z,12.00
2019-03-23T04:59:48.177Z,11.55
2019-03-23T05:02:16.450Z,10.55
2019-03-23T05:04:44.805Z,10.75
2019-03-23T05:07:13.109Z,10.53
2019-03-23T05:09:41.384Z,11.00
2019-03-23T05:12:09.637Z,10.30
2019-03-23T05:14:37.945Z,10.40
2019-03-23T05:17:06.233Z,10.10
2019-03-23T05:19:34.517Z,10.85
2019-03-23T05:22:02.853Z,10.82
2019-03-23T05:24:31.095Z,11.68
2019-03-23T05:26:59.381Z,10.75
2019-03-23T05:29:27.664Z,11.05
2019-03-23T05:31:55.962Z,11.80
2019-03-23T05:34:24.264Z,12.03
2019-03-23T05:36:52.610Z,12.75
2019-03-23T05:39:20.868Z,12.25
2019-03-23T05:41:49.182Z,11.43
2019-03-23T05:44:17.513Z,11.25
2019-03-23T05:46:45.793Z,12.20
2019-03-23T05:49:14.056Z,10.53
2019-03-23T05:51:42.311Z,10.78
2019-03-23T05:54:10.592Z,10.60
2019-03-23T05:56:38.835Z,10.80
2019-03-23T05:59:07.090Z,10.60
2019-03-23T06:01:35.378Z,10.43
2019-03-23T06:04:03.665Z,9.93
2019-03-23T06:06:31.952Z,10.28
2019-03-23T06:09:00.242Z,10.98
2019-03-23T06:11:28.572Z,10.50
2019-03-23T06:13:56.862Z,10.45
2019-03-23T06:16:25.254Z,9.80
2019-03-23T06:18:53.495Z,11.70
2019-03-23T06:21:21.761Z,9.80
2019-03-23T06:23:50.015Z,10.18
2019-03-23T06:26:18.294Z,10.68
2019-03-23T06:28:46.591Z,10.75
2019-03-23T06:31:14.870Z,10.25
2019-03-23T06:33:43.495Z,10.43
2019-03-23T06:36:11.784Z,10.38
2019-03-23T06:38:40.055Z,10.23
2019-03-23T06:41:11.040Z,10.48
2019-03-23T06:43:39.346Z,9.98
2019-03-23T06:46:07.613Z,10.20
2019-03-23T06:48:35.896Z,10.05
2019-03-23T06:51:04.211Z,9.88
2019-03-23T06:53:32.463Z,9.93
2019-03-23T06:56:00.720Z,9.88
2019-03-23T06:58:28.966Z,9.50
2019-03-23T07:00:57.497Z,9.78
2019-03-23T07:03:26.147Z,10.78
2019-03-23T07:05:54.526Z,10.23
2019-03-23T07:08:31.601Z,9.40
2019-03-23T07:10:55.801Z,9.35
2019-03-23T07:13:24.192Z,10.10
2019-03-23T07:15:52.530Z,9.58
2019-03-23T07:18:34.671Z,9.73
2019-03-23T07:21:06.134Z,9.25
2019-03-23T07:23:36.710Z,8.93
2019-03-23T07:26:06.106Z,9.65
2019-03-23T07:31:34.452Z,8.98
2019-03-23T07:34:09.508Z,9.38
2019-03-23T07:36:37.429Z,9.65
2019-03-23T07:39:11.533Z,9.43
2019-03-23T07:41:39.882Z,9.10
2019-03-23T07:44:11.172Z,9.03
2019-03-23T07:46:39.563Z,9.65
2019-03-23T07:49:07.981Z,8.95
2019-03-23T07:51:36.349Z,10.78
2019-03-23T07:54:06.434Z,12.25
2019-03-23T07:56:34.782Z,9.53
2019-03-23T07:59:03.088Z,8.93
2019-03-23T08:01:31.450Z,8.53
2019-03-23T08:03:59.791Z,11.63
2019-03-23T08:06:28.070Z,12.05
2019-03-23T08:08:59.294Z,9.30
2019-03-23T08:11:27.641Z,9.08
2019-03-23T08:13:55.925Z,9.40
2019-03-23T08:16:24.585Z,9.20
2019-03-23T08:18:53.043Z,9.70
2019-03-23T08:21:21.279Z,10.32
2019-03-23T08:23:49.625Z,10.35
2019-03-23T08:26:17.968Z,11.55
2019-03-23T08:28:46.268Z,12.35
2019-03-23T08:31:16.392Z,12.07
2019-03-23T08:33:44.859Z,11.12
2019-03-23T08:36:13.128Z,11.63
2019-03-23T08:38:41.413Z,12.80
2019-03-23T08:41:09.658Z,12.90
2019-03-23T08:43:37.916Z,12.98
2019-03-23T08:46:10.652Z,12.60
2019-03-23T08:48:39.005Z,12.95
2019-03-23T08:51:07.316Z,13.00
2019-03-23T08:53:35.680Z,12.37
2019-03-23T08:56:04.032Z,12.25
2019-03-23T08:58:34.513Z,13.25
2019-03-23T09:01:02.786Z,19.12
2019-03-23T09:03:31.131Z,18.45
2019-03-23T09:05:59.386Z,13.45
2019-03-23T09:08:27.675Z,13.80
2019-03-23T09:10:55.976Z,13.50
2019-03-23T09:13:24.241Z,13.15
2019-03-23T09:15:52.503Z,14.00
2019-03-23T09:18:20.821Z,13.90
2019-03-23T09:20:49.169Z,14.80
2019-03-23T09:23:17.494Z,14.50
2019-03-23T09:25:45.884Z,14.87
2019-03-23T09:28:14.356Z,14.00
2019-03-23T09:30:42.609Z,14.68
2019-03-23T09:33:12.736Z,17.80
2019-03-23T09:35:47.054Z,17.90
2019-03-23T09:38:15.361Z,18.00
2019-03-23T09:40:43.776Z,19.37
2019-03-23T09:43:12.044Z,19.80
2019-03-23T09:45:40.341Z,19.80
2019-03-23T09:48:08.713Z,18.15
2019-03-23T09:50:37.042Z,18.70
2019-03-23T09:53:05.526Z,19.05
2019-03-23T09:55:35.828Z,23.50
2019-03-23T09:58:04.998Z,19.52
2019-03-23T10:00:49.439Z,19.35
2019-03-23T10:03:15.224Z,18.75
2019-03-23T10:05:46.307Z,18.50
2019-03-23T10:08:14.796Z,19.00
2019-03-23T10:10:43.176Z,19.75
2019-03-23T10:13:11.501Z,20.52
2019-03-23T10:15:39.942Z,19.55
2019-03-23T10:18:08.243Z,18.48
2019-03-23T10:20:36.620Z,19.77
2019-03-23T10:23:08.262Z,20.02
2019-03-23T10:25:42.374Z,21.10
2019-03-23T10:28:10.616Z,21.33
2019-03-23T10:30:40.593Z,20.02
2019-03-23T10:33:08.856Z,20.88
2019-03-23T10:35:37.146Z,21.17
2019-03-23T10:38:05.433Z,20.43
2019-03-23T10:40:33.694Z,19.00
2019-03-23T10:43:02.049Z,20.43
2019-03-23T10:45:30.330Z,21.87
2019-03-23T10:47:58.682Z,27.02
2019-03-23T10:50:26.990Z,25.70
2019-03-23T10:52:55.260Z,23.67
2019-03-23T10:55:23.614Z,23.95
2019-03-23T10:57:51.906Z,23.38
2019-03-23T11:00:20.172Z,22.60
2019-03-23T11:02:48.450Z,22.48
2019-03-23T11:05:16.799Z,21.80
2019-03-23T11:07:45.039Z,21.42
2019-03-23T11:10:13.932Z,22.62
2019-03-23T11:12:42.179Z,20.92
2019-03-23T11:15:10.665Z,21.30
2019-03-23T11:17:39.014Z,22.20
2019-03-23T11:20:12.153Z,22.55
2019-03-23T11:22:40.406Z,23.25
2019-03-23T11:25:08.683Z,22.77
2019-03-23T11:27:36.970Z,22.52
2019-03-23T11:30:07.045Z,21.42
2019-03-23T11:32:35.335Z,25.48
2019-03-23T11:35:04.867Z,24.57
2019-03-23T11:37:33.236Z,23.50
2019-03-23T11:40:01.525Z,22.37
2019-03-23T11:42:29.793Z,22.77
2019-03-23T11:44:58.128Z,22.20
2019-03-23T11:47:28.102Z,22.48
2019-03-23T11:49:56.370Z,23.62
2019-03-23T11:52:24.617Z,23.20
2019-03-23T11:54:52.870Z,22.42
2019-03-23T11:57:21.160Z,22.02
2019-03-23T11:59:49.431Z,22.77
2019-03-23T12:02:17.690Z,22.20
2019-03-23T12:04:45.984Z,26.90
2019-03-23T12:07:14.057Z,22.67
2019-03-23T12:09:42.349Z,24.27
2019-03-23T12:12:10.649Z,21.15
2019-03-23T12:14:39.092Z,25.92
2019-03-23T12:17:07.345Z,21.00
2019-03-23T12:19:35.593Z,21.27
2019-03-23T12:22:03.867Z,21.35
2019-03-23T12:24:32.325Z,25.20
2019-03-23T12:27:02.772Z,23.22
2019-03-23T12:29:31.107Z,22.52
2019-03-23T12:31:59.396Z,21.33
2019-03-23T12:34:27.626Z,21.52
2019-03-23T12:37:10.710Z,21.82
2019-03-23T12:39:39.021Z,30.10
2019-03-23T12:42:09.126Z,26.75
2019-03-23T12:44:37.391Z,27.07
2019-03-23T12:47:05.709Z,23.02
2019-03-23T12:49:34.158Z,22.17
2019-03-23T12:52:04.361Z,12.35
2019-03-23T12:54:32.590Z,22.10
2019-03-23T12:57:00.980Z,27.65
2019-03-23T12:59:29.436Z,27.05
2019-03-23T13:01:57.794Z,27.37
2019-03-23T13:04:26.068Z,25.70
2019-03-23T13:06:54.513Z,30.70
2019-03-23T13:09:27.068Z,28.27
2019-03-23T13:11:57.825Z,27.25
2019-03-23T13:14:26.057Z,25.88
2019-03-23T13:16:54.461Z,29.63
2019-03-23T13:19:22.714Z,39.63
2019-03-23T13:21:54.030Z,30.75
2019-03-23T13:24:22.731Z,33.85
2019-03-23T13:26:51.380Z,34.13
2019-03-23T13:29:21.331Z,30.45
2019-03-23T13:31:50.736Z,27.27
2019-03-23T13:34:19.017Z,26.17
2019-03-23T13:36:48.975Z,26.87
2019-03-23T13:39:17.361Z,28.15
2019-03-23T13:41:49.517Z,27.07
2019-03-23T13:44:19.779Z,27.35
2019-03-23T13:46:48.044Z,35.25
2019-03-23T13:49:16.388Z,34.80
2019-03-23T13:51:44.671Z,28.35
2019-03-23T13:54:12.942Z,27.10
2019-03-23T13:56:45.731Z,28.02
2019-03-23T13:59:11.274Z,26.85
2019-03-23T14:01:39.518Z,27.93
2019-03-23T14:04:08.027Z,26.77
2019-03-23T14:06:36.342Z,27.00
2019-03-23T14:09:05.936Z,27.70
2019-03-23T14:11:34.377Z,26.77
2019-03-23T14:14:02.676Z,27.35
2019-03-23T14:16:30.914Z,29.27
2019-03-23T14:18:59.175Z,27.65
2019-03-23T14:21:27.536Z,30.55
2019-03-23T14:23:55.818Z,29.20
2019-03-23T14:26:24.088Z,32.83
2019-03-23T14:28:52.358Z,35.75
2019-03-23T14:31:20.634Z,30.10
2019-03-23T14:33:48.953Z,28.27
2019-03-23T14:36:17.286Z,28.90
2019-03-23T14:38:45.538Z,29.52
2019-03-23T14:41:13.874Z,28.30
2019-03-23T14:43:42.175Z,28.32
2019-03-23T14:46:10.585Z,26.80
2019-03-23T14:48:38.850Z,27.37
2019-03-23T14:51:07.109Z,26.33
2019-03-23T14:53:35.394Z,27.42
2019-03-23T14:56:03.630Z,26.65
2019-03-23T14:58:31.918Z,26.62
2019-03-23T15:01:00.393Z,26.50
2019-03-23T15:03:28.665Z,28.15
2019-03-23T15:05:56.934Z,26.87
2019-03-23T15:08:25.186Z,27.55
2019-03-23T15:10:53.432Z,26.77
2019-03-23T15:13:21.752Z,27.02
2019-03-23T15:15:50.001Z,26.68
2019-03-23T15:18:18.250Z,26.73
2019-03-23T15:20:46.530Z,25.80
2019-03-23T15:23:14.872Z,25.90
2019-03-23T15:25:43.179Z,27.02
2019-03-23T15:28:11.430Z,26.60
2019-03-23T15:30:39.663Z,29.27
2019-03-23T15:33:08.008Z,29.25
2019-03-23T15:35:36.272Z,31.40
2019-03-23T15:38:04.534Z,31.68
2019-03-23T15:40:32.803Z,34.33
2019-03-23T15:43:01.083Z,32.40
2019-03-23T15:45:29.352Z,31.45
2019-03-23T15:47:57.621Z,32.48
2019-03-23T15:50:26.048Z,32.23
2019-03-23T15:52:54.291Z,33.13
2019-03-23T15:55:22.566Z,30.70
2019-03-23T15:57:50.839Z,31.95
2019-03-23T16:00:19.170Z,31.93
2019-03-23T16:02:47.451Z,32.10
2019-03-23T16:05:16.555Z,36.03
2019-03-23T16:07:44.915Z,33.48
2019-03-23T16:10:13.168Z,32.30
2019-03-23T16:12:41.402Z,31.23
2019-03-23T16:15:11.111Z,31.97
2019-03-23T16:17:39.368Z,31.37
2019-03-23T16:20:09.470Z,31.73
2019-03-23T16:22:37.808Z,30.75
2019-03-23T16:25:07.898Z,31.73
2019-03-23T16:27:36.168Z,29.72
2019-03-23T16:30:06.415Z,30.68
2019-03-23T16:32:35.325Z,30.65
2019-03-23T16:35:05.452Z,30.43
2019-03-23T16:37:33.752Z,28.98
2019-03-23T16:40:02.022Z,29.80
2019-03-23T16:42:30.271Z,28.52
2019-03-23T16:44:58.511Z,36.13
2019-03-23T16:47:26.819Z,48.38
2019-03-23T16:49:55.069Z,33.75
2019-03-23T16:52:23.332Z,30.50
2019-03-23T16:54:51.622Z,30.40
2019-03-23T16:57:19.992Z,34.65
2019-03-23T16:59:48.240Z,30.37
2019-03-23T17:02:16.491Z,30.23
2019-03-23T17:04:44.769Z,30.62
2019-03-23T17:07:13.020Z,30.92
2019-03-23T17:09:41.293Z,31.60
2019-03-23T17:12:09.605Z,30.77
2019-03-23T17:14:37.877Z,30.37
2019-03-23T17:17:06.148Z,31.07
2019-03-23T17:19:34.423Z,30.57
2019-03-23T17:22:02.689Z,31.25
2019-03-23T17:24:30.940Z,30.62
2019-03-23T17:26:59.252Z,31.50
2019-03-23T17:29:27.490Z,31.25
2019-03-23T17:31:55.724Z,31.55
2019-03-23T17:34:24.052Z,31.37
2019-03-23T17:36:52.322Z,30.82
2019-03-23T17:39:20.574Z,31.00
2019-03-23T17:41:48.829Z,31.37
2019-03-23T17:44:17.110Z,32.40
2019-03-23T17:46:45.386Z,32.75
2019-03-23T17:49:13.632Z,33.28
2019-03-23T17:51:41.895Z,32.17
2019-03-23T17:54:10.233Z,32.60
2019-03-23T17:56:38.510Z,33.38
2019-03-23T17:59:06.766Z,31.37
2019-03-23T18:01:35.402Z,33.05
2019-03-23T18:04:03.673Z,35.10
2019-03-23T18:06:31.946Z,32.73
2019-03-23T18:09:00.208Z,32.58
2019-03-23T18:11:28.459Z,31.48
2019-03-23T18:13:56.740Z,32.83
2019-03-23T18:16:24.981Z,32.08
2019-03-23T18:18:53.329Z,32.67
2019-03-23T18:21:21.586Z,32.38
2019-03-23T18:23:49.857Z,30.70
2019-03-23T18:26:18.129Z,32.65
2019-03-23T18:28:46.396Z,31.80
2019-03-23T18:31:14.700Z,31.73
2019-03-23T18:33:42.940Z,36.98
2019-03-23T18:36:11.201Z,49.65
2019-03-23T18:38:39.722Z,45.50
2019-03-23T18:41:07.971Z,40.90
2019-03-23T18:43:36.340Z,39.15
2019-03-23T18:46:06.719Z,34.45
2019-03-23T18:48:35.000Z,33.38
2019-03-23T18:51:03.269Z,31.62
2019-03-23T18:53:32.068Z,35.03
2019-03-23T18:56:00.313Z,33.58
2019-03-23T18:58:28.616Z,33.23
2019-03-23T19:00:56.867Z,34.08
2019-03-23T19:03:25.129Z,32.38
2019-03-23T19:05:53.749Z,32.28
2019-03-23T19:08:22.046Z,31.10
2019-03-23T19:10:50.372Z,32.42
2019-03-23T19:13:18.748Z,31.90
2019-03-23T19:15:46.993Z,31.02
2019-03-23T19:18:15.303Z,32.60
2019-03-23T19:20:43.577Z,33.23
2019-03-23T19:23:11.820Z,32.60
2019-03-23T19:25:40.113Z,32.50
2019-03-23T19:28:08.362Z,34.25
2019-03-23T19:30:36.632Z,34.98
2019-03-23T19:33:06.302Z,32.88
2019-03-23T19:35:34.906Z,31.40
2019-03-23T19:38:03.196Z,32.38
2019-03-23T19:40:31.518Z,32.75
2019-03-23T19:45:47.417Z,36.90
2019-03-23T19:48:15.764Z,36.15
2019-03-23T19:50:44.048Z,37.13
2019-03-23T19:53:12.885Z,60.88
2019-03-23T19:55:51.661Z,103.22
2019-03-23T19:58:19.983Z,49.95
2019-03-23T20:00:48.220Z,38.10
2019-03-23T20:03:19.175Z,36.68
2019-03-23T20:05:47.606Z,35.40
2019-03-23T20:08:15.909Z,36.28
2019-03-23T20:10:44.156Z,35.80
2019-03-23T20:13:12.535Z,35.33
2019-03-23T20:15:41.197Z,34.13
2019-03-23T20:18:09.573Z,33.98
2019-03-23T20:20:37.895Z,34.75
2019-03-23T20:23:06.174Z,33.33
2019-03-23T20:25:34.475Z,32.78
2019-03-23T20:28:02.835Z,30.77
2019-03-23T20:30:31.251Z,31.95
2019-03-23T20:32:59.522Z,31.10
2019-03-23T20:35:27.809Z,30.65
2019-03-23T20:37:56.048Z,30.37
2019-03-23T20:40:24.325Z,29.48
2019-03-23T20:42:52.681Z,33.38
2019-03-23T20:45:28.447Z,33.28
2019-03-23T20:47:56.955Z,33.02
2019-03-23T20:50:25.214Z,30.62
2019-03-23T20:52:54.007Z,30.97
2019-03-23T20:55:29.758Z,30.02
2019-03-23T20:57:58.026Z,29.23
2019-03-23T21:00:26.357Z,27.75
2019-03-23T21:02:54.703Z,27.05
2019-03-23T21:05:33.159Z,27.82
2019-03-23T21:07:53.127Z,27.10
2019-03-23T21:10:21.391Z,26.85
2019-03-23T21:12:49.661Z,25.77
2019-03-23T21:15:17.929Z,26.30
2019-03-23T21:17:51.488Z,26.07
2019-03-23T21:20:16.210Z,24.43
2019-03-23T21:22:44.471Z,28.45
2019-03-23T21:25:12.731Z,30.88
2019-03-23T21:27:40.995Z,36.33
2019-03-23T21:30:14.579Z,25.82
2019-03-23T21:32:42.876Z,23.90
2019-03-23T21:35:11.193Z,24.12
2019-03-23T21:37:39.656Z,24.87
2019-03-23T21:40:07.931Z,24.20
2019-03-23T21:42:36.204Z,23.83
2019-03-23T21:48:09.091Z,23.35
2019-03-23T21:53:32.078Z,22.80
2019-03-23T21:56:00.670Z,22.75
2019-03-23T21:58:28.947Z,23.75
2019-03-23T22:00:57.285Z,22.82
2019-03-23T22:03:30.599Z,22.52
2019-03-23T22:06:03.221Z,21.33
2019-03-23T22:08:33.415Z,21.80
2019-03-23T22:11:01.854Z,21.42
2019-03-23T22:13:30.211Z,21.87
2019-03-23T22:15:58.491Z,21.68
2019-03-23T22:22:00.350Z,22.05
2019-03-23T22:24:51.524Z,22.75
2019-03-23T22:27:19.777Z,21.75
2019-03-23T22:29:48.070Z,21.73
2019-03-23T22:32:16.416Z,22.17
2019-03-23T22:34:44.688Z,21.12
2019-03-23T22:37:12.970Z,28.45
2019-03-23T22:39:42.944Z,31.25
2019-03-23T22:45:00.370Z,22.35
2019-03-23T22:47:28.664Z,23.27
2019-03-23T22:49:56.912Z,22.05
2019-03-23T22:52:25.215Z,21.48
2019-03-23T22:54:53.562Z,21.93
2019-03-23T22:57:21.890Z,22.52
2019-03-23T22:59:57.922Z,21.07
2019-03-23T23:02:26.284Z,21.60
2019-03-23T23:04:54.612Z,21.57
2019-03-23T23:07:31.635Z,21.77
2019-03-23T23:13:07.798Z,21.62
2019-03-23T23:18:33.216Z,23.92
2019-03-23T23:21:03.259Z,22.93
2019-03-23T23:23:31.571Z,22.67
2019-03-23T23:25:59.883Z,22.32
2019-03-23T23:28:28.274Z,23.45
2019-03-23T23:30:56.587Z,21.35
2019-03-23T23:33:24.902Z,22.73
2019-03-23T23:35:53.195Z,22.37
2019-03-23T23:38:26.158Z,25.05
2019-03-23T23:40:54.415Z,30.52
2019-03-23T23:43:22.708Z,23.75
2019-03-23T23:45:51.003Z,23.07
2019-03-23T23:48:20.936Z,24.47
2019-03-23T23:50:49.278Z,23.90
2019-03-23T23:53:17.571Z,22.42
2019-03-23T23:55:45.819Z,23.30
2019-03-23T23:58:14.197Z,22.93
